sensor_id;sensor_type;location;lat;lon;timestamp;P1;durP1;ratioP1;P2;durP2;ratioP2
10641;SDS011;5369;49.586;8.646;2024-01-27T00:02:18;12.57;;;5.80;;
10641;SDS011;5369;49.586;8.646;2024-01-27T00:04:44;11.13;;;5.60;;
10641;SDS011;5369;49.586;8.646;2024-01-27T00:07:11;8.80;;;5.23;;
10641;SDS011;5369;49.586;8.646;2024-01-27T00:09:37;10.70;;;6.30;;
10641;SDS011;5369;49.586;8.646;2024-01-27T00:12:03;11.37;;;6.97;;
10641;SDS011;5369;49.586;8.646;2024-01-27T00:14:29;19.20;;;11.40;;
10641;SDS011;5369;49.586;8.646;2024-01-27T00:16:56;19.27;;;10.37;;
10641;SDS011;5369;49.586;8.646;2024-01-27T00:19:22;15.13;;;9.43;;
10641;SDS011;5369;49.586;8.646;2024-01-27T00:21:48;15.07;;;7.53;;
10641;SDS011;5369;49.586;8.646;2024-01-27T00:24:14;14.33;;;7.13;;
10641;SDS011;5369;49.586;8.646;2024-01-27T00:26:41;11.57;;;6.40;;
10641;SDS011;5369;49.586;8.646;2024-01-27T00:29:07;14.73;;;6.27;;
10641;SDS011;5369;49.586;8.646;2024-01-27T00:31:33;11.17;;;5.43;;
10641;SDS011;5369;49.586;8.646;2024-01-27T00:33:59;10.73;;;4.60;;
10641;SDS011;5369;49.586;8.646;2024-01-27T00:36:26;8.70;;;4.13;;
10641;SDS011;5369;49.586;8.646;2024-01-27T00:38:52;8.90;;;4.40;;
10641;SDS011;5369;49.586;8.646;2024-01-27T00:41:19;11.67;;;4.93;;
10641;SDS011;5369;49.586;8.646;2024-01-27T00:43:45;9.80;;;4.60;;
10641;SDS011;5369;49.586;8.646;2024-01-27T00:46:11;8.83;;;3.73;;
10641;SDS011;5369;49.586;8.646;2024-01-27T00:48:38;7.50;;;4.23;;
10641;SDS011;5369;49.586;8.646;2024-01-27T00:51:04;7.33;;;3.97;;
10641;SDS011;5369;49.586;8.646;2024-01-27T00:53:30;8.20;;;3.50;;
10641;SDS011;5369;49.586;8.646;2024-01-27T00:55:56;9.20;;;3.57;;
10641;SDS011;5369;49.586;8.646;2024-01-27T00:58:22;6.77;;;3.73;;
10641;SDS011;5369;49.586;8.646;2024-01-27T01:00:48;7.10;;;3.70;;
10641;SDS011;5369;49.586;8.646;2024-01-27T01:03:14;9.27;;;3.70;;
10641;SDS011;5369;49.586;8.646;2024-01-27T01:05:41;9.87;;;3.20;;
10641;SDS011;5369;49.586;8.646;2024-01-27T01:08:07;11.73;;;3.97;;
10641;SDS011;5369;49.586;8.646;2024-01-27T01:10:33;8.63;;;3.30;;
10641;SDS011;5369;49.586;8.646;2024-01-27T01:12:59;7.10;;;4.13;;
10641;SDS011;5369;49.586;8.646;2024-01-27T01:15:25;8.33;;;3.63;;
10641;SDS011;5369;49.586;8.646;2024-01-27T01:17:51;7.77;;;3.60;;
10641;SDS011;5369;49.586;8.646;2024-01-27T01:20:18;6.37;;;3.70;;
10641;SDS011;5369;49.586;8.646;2024-01-27T01:22:44;7.73;;;3.77;;
10641;SDS011;5369;49.586;8.646;2024-01-27T01:25:10;10.30;;;4.23;;
10641;SDS011;5369;49.586;8.646;2024-01-27T01:27:36;8.40;;;4.37;;
10641;SDS011;5369;49.586;8.646;2024-01-27T01:30:03;9.40;;;4.07;;
10641;SDS011;5369;49.586;8.646;2024-01-27T01:32:29;9.80;;;4.00;;
10641;SDS011;5369;49.586;8.646;2024-01-27T01:34:55;6.10;;;3.77;;
10641;SDS011;5369;49.586;8.646;2024-01-27T01:37:21;7.87;;;3.90;;
10641;SDS011;5369;49.586;8.646;2024-01-27T01:39:47;13.00;;;4.33;;
10641;SDS011;5369;49.586;8.646;2024-01-27T01:42:13;8.13;;;3.90;;
10641;SDS011;5369;49.586;8.646;2024-01-27T01:44:39;13.30;;;5.83;;
10641;SDS011;5369;49.586;8.646;2024-01-27T01:47:05;10.13;;;4.47;;
10641;SDS011;5369;49.586;8.646;2024-01-27T01:49:33;8.87;;;4.10;;
10641;SDS011;5369;49.586;8.646;2024-01-27T01:51:59;10.87;;;4.40;;
10641;SDS011;5369;49.586;8.646;2024-01-27T01:54:25;8.80;;;4.30;;
10641;SDS011;5369;49.586;8.646;2024-01-27T01:56:54;6.23;;;3.70;;
10641;SDS011;5369;49.586;8.646;2024-01-27T01:59:20;8.57;;;3.87;;
10641;SDS011;5369;49.586;8.646;2024-01-27T02:01:47;7.23;;;3.40;;
10641;SDS011;5369;49.586;8.646;2024-01-27T02:04:13;6.17;;;3.73;;
10641;SDS011;5369;49.586;8.646;2024-01-27T02:06:39;7.80;;;3.77;;
10641;SDS011;5369;49.586;8.646;2024-01-27T02:09:05;10.50;;;3.80;;
10641;SDS011;5369;49.586;8.646;2024-01-27T02:11:31;9.30;;;3.97;;
10641;SDS011;5369;49.586;8.646;2024-01-27T02:13:57;6.90;;;4.13;;
10641;SDS011;5369;49.586;8.646;2024-01-27T02:16:23;6.07;;;3.80;;
10641;SDS011;5369;49.586;8.646;2024-01-27T02:18:50;6.50;;;3.50;;
10641;SDS011;5369;49.586;8.646;2024-01-27T02:21:16;8.03;;;3.50;;
10641;SDS011;5369;49.586;8.646;2024-01-27T02:23:42;4.87;;;3.50;;
10641;SDS011;5369;49.586;8.646;2024-01-27T02:26:08;7.57;;;4.00;;
10641;SDS011;5369;49.586;8.646;2024-01-27T02:28:34;8.63;;;4.27;;
10641;SDS011;5369;49.586;8.646;2024-01-27T02:31:01;7.60;;;4.00;;
10641;SDS011;5369;49.586;8.646;2024-01-27T02:33:28;11.20;;;4.30;;
10641;SDS011;5369;49.586;8.646;2024-01-27T02:35:54;7.47;;;4.03;;
10641;SDS011;5369;49.586;8.646;2024-01-27T02:38:20;8.23;;;4.20;;
10641;SDS011;5369;49.586;8.646;2024-01-27T02:40:46;9.63;;;3.90;;
10641;SDS011;5369;49.586;8.646;2024-01-27T02:43:12;7.93;;;4.00;;
10641;SDS011;5369;49.586;8.646;2024-01-27T02:45:38;12.10;;;4.20;;
10641;SDS011;5369;49.586;8.646;2024-01-27T02:48:04;6.50;;;3.70;;
10641;SDS011;5369;49.586;8.646;2024-01-27T02:50:31;7.07;;;3.47;;
10641;SDS011;5369;49.586;8.646;2024-01-27T02:52:57;8.57;;;4.13;;
10641;SDS011;5369;49.586;8.646;2024-01-27T02:55:23;7.53;;;3.60;;
10641;SDS011;5369;49.586;8.646;2024-01-27T02:57:49;6.03;;;3.30;;
10641;SDS011;5369;49.586;8.646;2024-01-27T03:00:15;5.90;;;3.10;;
10641;SDS011;5369;49.586;8.646;2024-01-27T03:02:42;6.03;;;3.53;;
10641;SDS011;5369;49.586;8.646;2024-01-27T03:05:08;10.37;;;4.00;;
10641;SDS011;5369;49.586;8.646;2024-01-27T03:07:35;8.80;;;3.90;;
10641;SDS011;5369;49.586;8.646;2024-01-27T03:10:01;10.20;;;4.07;;
10641;SDS011;5369;49.586;8.646;2024-01-27T03:12:27;8.27;;;3.93;;
10641;SDS011;5369;49.586;8.646;2024-01-27T03:14:53;7.47;;;3.73;;
10641;SDS011;5369;49.586;8.646;2024-01-27T03:17:20;7.93;;;3.57;;
10641;SDS011;5369;49.586;8.646;2024-01-27T03:19:46;5.67;;;3.50;;
10641;SDS011;5369;49.586;8.646;2024-01-27T03:22:12;5.07;;;3.60;;
10641;SDS011;5369;49.586;8.646;2024-01-27T03:24:38;8.60;;;3.50;;
10641;SDS011;5369;49.586;8.646;2024-01-27T03:27:04;5.97;;;3.07;;
10641;SDS011;5369;49.586;8.646;2024-01-27T03:29:30;5.30;;;3.20;;
10641;SDS011;5369;49.586;8.646;2024-01-27T03:31:56;7.73;;;3.30;;
10641;SDS011;5369;49.586;8.646;2024-01-27T03:34:22;9.43;;;3.73;;
10641;SDS011;5369;49.586;8.646;2024-01-27T03:36:50;10.27;;;3.70;;
10641;SDS011;5369;49.586;8.646;2024-01-27T03:39:16;6.60;;;3.30;;
10641;SDS011;5369;49.586;8.646;2024-01-27T03:41:42;5.93;;;3.57;;
10641;SDS011;5369;49.586;8.646;2024-01-27T03:44:10;7.47;;;3.13;;
10641;SDS011;5369;49.586;8.646;2024-01-27T03:46:36;4.90;;;3.10;;
10641;SDS011;5369;49.586;8.646;2024-01-27T03:49:04;7.13;;;4.03;;
10641;SDS011;5369;49.586;8.646;2024-01-27T03:51:30;5.30;;;3.20;;
10641;SDS011;5369;49.586;8.646;2024-01-27T03:53:56;9.20;;;3.57;;
10641;SDS011;5369;49.586;8.646;2024-01-27T03:56:22;8.33;;;3.90;;
10641;SDS011;5369;49.586;8.646;2024-01-27T03:58:48;4.97;;;3.50;;
10641;SDS011;5369;49.586;8.646;2024-01-27T04:01:15;7.40;;;4.10;;
10641;SDS011;5369;49.586;8.646;2024-01-27T04:03:41;6.67;;;3.53;;
10641;SDS011;5369;49.586;8.646;2024-01-27T04:06:07;8.10;;;4.13;;
10641;SDS011;5369;49.586;8.646;2024-01-27T04:08:33;13.20;;;4.10;;
10641;SDS011;5369;49.586;8.646;2024-01-27T04:10:59;11.20;;;5.10;;
10641;SDS011;5369;49.586;8.646;2024-01-27T04:13:25;7.93;;;4.20;;
10641;SDS011;5369;49.586;8.646;2024-01-27T04:15:51;10.70;;;4.23;;
10641;SDS011;5369;49.586;8.646;2024-01-27T04:18:19;9.40;;;4.80;;
10641;SDS011;5369;49.586;8.646;2024-01-27T04:20:45;7.67;;;4.13;;
10641;SDS011;5369;49.586;8.646;2024-01-27T04:23:11;6.80;;;3.60;;
10641;SDS011;5369;49.586;8.646;2024-01-27T04:25:37;8.93;;;4.33;;
10641;SDS011;5369;49.586;8.646;2024-01-27T04:28:04;11.27;;;4.23;;
10641;SDS011;5369;49.586;8.646;2024-01-27T04:30:30;8.47;;;4.30;;
10641;SDS011;5369;49.586;8.646;2024-01-27T04:32:57;9.63;;;4.33;;
10641;SDS011;5369;49.586;8.646;2024-01-27T04:35:23;9.00;;;5.23;;
10641;SDS011;5369;49.586;8.646;2024-01-27T04:37:49;10.87;;;5.43;;
10641;SDS011;5369;49.586;8.646;2024-01-27T04:40:16;10.43;;;5.57;;
10641;SDS011;5369;49.586;8.646;2024-01-27T04:42:42;10.37;;;5.50;;
10641;SDS011;5369;49.586;8.646;2024-01-27T04:45:09;9.40;;;5.00;;
10641;SDS011;5369;49.586;8.646;2024-01-27T04:47:35;12.07;;;4.97;;
10641;SDS011;5369;49.586;8.646;2024-01-27T04:50:01;10.07;;;5.40;;
10641;SDS011;5369;49.586;8.646;2024-01-27T04:52:30;7.73;;;4.97;;
10641;SDS011;5369;49.586;8.646;2024-01-27T04:54:56;10.23;;;4.93;;
10641;SDS011;5369;49.586;8.646;2024-01-27T04:57:23;9.10;;;5.00;;
10641;SDS011;5369;49.586;8.646;2024-01-27T04:59:49;11.53;;;5.90;;
10641;SDS011;5369;49.586;8.646;2024-01-27T05:02:15;11.60;;;6.00;;
10641;SDS011;5369;49.586;8.646;2024-01-27T05:04:41;9.90;;;5.40;;
10641;SDS011;5369;49.586;8.646;2024-01-27T05:07:08;11.27;;;5.63;;
10641;SDS011;5369;49.586;8.646;2024-01-27T05:09:34;10.03;;;5.93;;
10641;SDS011;5369;49.586;8.646;2024-01-27T05:12:03;10.07;;;5.80;;
10641;SDS011;5369;49.586;8.646;2024-01-27T05:14:29;12.60;;;6.13;;
10641;SDS011;5369;49.586;8.646;2024-01-27T05:16:55;10.70;;;5.90;;
10641;SDS011;5369;49.586;8.646;2024-01-27T05:19:21;15.27;;;5.83;;
10641;SDS011;5369;49.586;8.646;2024-01-27T05:21:47;12.77;;;5.37;;
10641;SDS011;5369;49.586;8.646;2024-01-27T05:24:13;8.97;;;5.07;;
10641;SDS011;5369;49.586;8.646;2024-01-27T05:26:40;15.27;;;7.07;;
10641;SDS011;5369;49.586;8.646;2024-01-27T05:29:06;14.93;;;7.40;;
10641;SDS011;5369;49.586;8.646;2024-01-27T05:31:33;16.83;;;7.57;;
10641;SDS011;5369;49.586;8.646;2024-01-27T05:34:00;13.30;;;7.40;;
10641;SDS011;5369;49.586;8.646;2024-01-27T05:36:26;8.50;;;6.07;;
10641;SDS011;5369;49.586;8.646;2024-01-27T05:38:52;8.17;;;5.43;;
10641;SDS011;5369;49.586;8.646;2024-01-27T05:41:19;11.40;;;5.37;;
10641;SDS011;5369;49.586;8.646;2024-01-27T05:43:45;8.83;;;5.07;;
10641;SDS011;5369;49.586;8.646;2024-01-27T05:46:11;9.80;;;5.37;;
10641;SDS011;5369;49.586;8.646;2024-01-27T05:48:37;9.50;;;4.90;;
10641;SDS011;5369;49.586;8.646;2024-01-27T05:51:03;8.23;;;4.53;;
10641;SDS011;5369;49.586;8.646;2024-01-27T05:53:29;7.40;;;4.30;;
10641;SDS011;5369;49.586;8.646;2024-01-27T05:55:56;8.87;;;5.33;;
10641;SDS011;5369;49.586;8.646;2024-01-27T05:58:22;9.37;;;5.17;;
10641;SDS011;5369;49.586;8.646;2024-01-27T06:00:48;6.30;;;4.60;;
10641;SDS011;5369;49.586;8.646;2024-01-27T06:03:14;9.27;;;4.80;;
10641;SDS011;5369;49.586;8.646;2024-01-27T06:05:42;8.33;;;4.57;;
10641;SDS011;5369;49.586;8.646;2024-01-27T06:08:08;8.73;;;4.50;;
10641;SDS011;5369;49.586;8.646;2024-01-27T06:10:35;13.03;;;5.60;;
10641;SDS011;5369;49.586;8.646;2024-01-27T06:13:02;9.30;;;5.07;;
10641;SDS011;5369;49.586;8.646;2024-01-27T06:15:28;10.90;;;5.57;;
10641;SDS011;5369;49.586;8.646;2024-01-27T06:17:54;10.73;;;5.20;;
10641;SDS011;5369;49.586;8.646;2024-01-27T06:20:21;11.03;;;4.70;;
10641;SDS011;5369;49.586;8.646;2024-01-27T06:22:47;12.40;;;5.30;;
10641;SDS011;5369;49.586;8.646;2024-01-27T06:25:13;11.43;;;5.37;;
10641;SDS011;5369;49.586;8.646;2024-01-27T06:27:40;9.13;;;5.03;;
10641;SDS011;5369;49.586;8.646;2024-01-27T06:30:09;9.57;;;5.30;;
10641;SDS011;5369;49.586;8.646;2024-01-27T06:32:37;13.47;;;6.17;;
10641;SDS011;5369;49.586;8.646;2024-01-27T06:35:03;14.37;;;6.33;;
10641;SDS011;5369;49.586;8.646;2024-01-27T06:37:30;13.13;;;6.30;;
10641;SDS011;5369;49.586;8.646;2024-01-27T06:39:56;12.50;;;6.17;;
10641;SDS011;5369;49.586;8.646;2024-01-27T06:42:22;11.83;;;5.70;;
10641;SDS011;5369;49.586;8.646;2024-01-27T06:44:48;8.27;;;4.80;;
10641;SDS011;5369;49.586;8.646;2024-01-27T06:47:15;10.17;;;5.03;;
10641;SDS011;5369;49.586;8.646;2024-01-27T06:49:41;9.90;;;4.70;;
10641;SDS011;5369;49.586;8.646;2024-01-27T06:52:07;6.87;;;4.40;;
10641;SDS011;5369;49.586;8.646;2024-01-27T06:54:33;8.70;;;4.20;;
10641;SDS011;5369;49.586;8.646;2024-01-27T06:57:01;9.20;;;4.73;;
10641;SDS011;5369;49.586;8.646;2024-01-27T06:59:27;8.53;;;4.90;;
10641;SDS011;5369;49.586;8.646;2024-01-27T07:01:54;7.77;;;4.83;;
10641;SDS011;5369;49.586;8.646;2024-01-27T07:04:20;9.63;;;5.47;;
10641;SDS011;5369;49.586;8.646;2024-01-27T07:06:46;8.47;;;5.47;;
10641;SDS011;5369;49.586;8.646;2024-01-27T07:09:12;8.50;;;4.73;;
10641;SDS011;5369;49.586;8.646;2024-01-27T07:11:38;8.50;;;5.00;;
10641;SDS011;5369;49.586;8.646;2024-01-27T07:14:04;8.63;;;5.17;;
10641;SDS011;5369;49.586;8.646;2024-01-27T07:16:31;11.40;;;5.63;;
10641;SDS011;5369;49.586;8.646;2024-01-27T07:18:59;5.90;;;4.87;;
10641;SDS011;5369;49.586;8.646;2024-01-27T07:21:25;11.53;;;5.50;;
10641;SDS011;5369;49.586;8.646;2024-01-27T07:23:54;11.10;;;5.50;;
10641;SDS011;5369;49.586;8.646;2024-01-27T07:26:20;14.07;;;6.87;;
10641;SDS011;5369;49.586;8.646;2024-01-27T07:28:46;10.73;;;6.30;;
10641;SDS011;5369;49.586;8.646;2024-01-27T07:31:13;13.60;;;6.63;;
10641;SDS011;5369;49.586;8.646;2024-01-27T07:33:40;15.23;;;6.57;;
10641;SDS011;5369;49.586;8.646;2024-01-27T07:36:06;12.73;;;6.63;;
10641;SDS011;5369;49.586;8.646;2024-01-27T07:38:32;11.20;;;6.50;;
10641;SDS011;5369;49.586;8.646;2024-01-27T07:40:58;10.93;;;6.10;;
10641;SDS011;5369;49.586;8.646;2024-01-27T07:43:25;12.73;;;6.50;;
10641;SDS011;5369;49.586;8.646;2024-01-27T07:45:52;11.53;;;6.00;;
10641;SDS011;5369;49.586;8.646;2024-01-27T07:48:19;10.70;;;5.90;;
10641;SDS011;5369;49.586;8.646;2024-01-27T07:50:46;12.00;;;6.00;;
10641;SDS011;5369;49.586;8.646;2024-01-27T07:53:14;9.37;;;5.23;;
10641;SDS011;5369;49.586;8.646;2024-01-27T07:55:40;10.30;;;5.43;;
10641;SDS011;5369;49.586;8.646;2024-01-27T07:58:06;11.87;;;5.80;;
10641;SDS011;5369;49.586;8.646;2024-01-27T08:00:32;8.47;;;5.70;;
10641;SDS011;5369;49.586;8.646;2024-01-27T08:02:59;10.23;;;6.30;;
10641;SDS011;5369;49.586;8.646;2024-01-27T08:05:25;12.70;;;5.87;;
10641;SDS011;5369;49.586;8.646;2024-01-27T08:07:51;9.53;;;5.93;;
10641;SDS011;5369;49.586;8.646;2024-01-27T08:10:18;9.37;;;5.50;;
10641;SDS011;5369;49.586;8.646;2024-01-27T08:12:44;12.30;;;6.17;;
10641;SDS011;5369;49.586;8.646;2024-01-27T08:15:11;8.43;;;5.73;;
10641;SDS011;5369;49.586;8.646;2024-01-27T08:17:37;9.67;;;6.30;;
10641;SDS011;5369;49.586;8.646;2024-01-27T08:20:04;9.33;;;5.87;;
10641;SDS011;5369;49.586;8.646;2024-01-27T08:22:30;10.63;;;6.40;;
10641;SDS011;5369;49.586;8.646;2024-01-27T08:24:57;11.10;;;6.33;;
10641;SDS011;5369;49.586;8.646;2024-01-27T08:27:23;10.90;;;6.63;;
10641;SDS011;5369;49.586;8.646;2024-01-27T08:29:49;9.30;;;6.37;;
10641;SDS011;5369;49.586;8.646;2024-01-27T08:32:15;11.83;;;6.90;;
10641;SDS011;5369;49.586;8.646;2024-01-27T08:34:41;12.00;;;6.87;;
10641;SDS011;5369;49.586;8.646;2024-01-27T08:37:14;14.13;;;8.00;;
10641;SDS011;5369;49.586;8.646;2024-01-27T08:39:41;15.47;;;8.20;;
10641;SDS011;5369;49.586;8.646;2024-01-27T08:42:07;18.07;;;8.47;;
10641;SDS011;5369;49.586;8.646;2024-01-27T08:44:33;13.53;;;8.60;;
10641;SDS011;5369;49.586;8.646;2024-01-27T08:46:59;15.67;;;9.33;;
10641;SDS011;5369;49.586;8.646;2024-01-27T08:49:26;14.83;;;8.80;;
10641;SDS011;5369;49.586;8.646;2024-01-27T08:51:52;11.30;;;8.07;;
10641;SDS011;5369;49.586;8.646;2024-01-27T08:54:18;11.60;;;7.60;;
10641;SDS011;5369;49.586;8.646;2024-01-27T08:56:44;10.47;;;7.10;;
10641;SDS011;5369;49.586;8.646;2024-01-27T08:59:10;10.80;;;7.37;;
10641;SDS011;5369;49.586;8.646;2024-01-27T09:01:36;14.70;;;7.60;;
10641;SDS011;5369;49.586;8.646;2024-01-27T09:04:03;14.43;;;7.73;;
10641;SDS011;5369;49.586;8.646;2024-01-27T09:06:29;11.90;;;7.13;;
10641;SDS011;5369;49.586;8.646;2024-01-27T09:08:55;12.00;;;7.93;;
10641;SDS011;5369;49.586;8.646;2024-01-27T09:11:21;14.53;;;7.50;;
10641;SDS011;5369;49.586;8.646;2024-01-27T09:13:48;13.30;;;7.83;;
10641;SDS011;5369;49.586;8.646;2024-01-27T09:16:17;16.00;;;8.67;;
10641;SDS011;5369;49.586;8.646;2024-01-27T09:18:43;17.63;;;9.50;;
10641;SDS011;5369;49.586;8.646;2024-01-27T09:21:09;18.30;;;9.30;;
10641;SDS011;5369;49.586;8.646;2024-01-27T09:23:35;16.77;;;9.37;;
10641;SDS011;5369;49.586;8.646;2024-01-27T09:26:02;18.17;;;9.47;;
10641;SDS011;5369;49.586;8.646;2024-01-27T09:28:28;15.47;;;8.77;;
10641;SDS011;5369;49.586;8.646;2024-01-27T09:30:54;18.77;;;9.50;;
10641;SDS011;5369;49.586;8.646;2024-01-27T09:33:20;14.60;;;9.23;;
10641;SDS011;5369;49.586;8.646;2024-01-27T09:35:51;15.93;;;8.83;;
10641;SDS011;5369;49.586;8.646;2024-01-27T09:38:17;14.67;;;7.93;;
10641;SDS011;5369;49.586;8.646;2024-01-27T09:40:43;14.20;;;7.03;;
10641;SDS011;5369;49.586;8.646;2024-01-27T09:43:11;13.03;;;6.40;;
10641;SDS011;5369;49.586;8.646;2024-01-27T09:45:39;11.20;;;6.43;;
10641;SDS011;5369;49.586;8.646;2024-01-27T09:48:06;9.97;;;5.73;;
10641;SDS011;5369;49.586;8.646;2024-01-27T09:50:33;13.67;;;6.30;;
10641;SDS011;5369;49.586;8.646;2024-01-27T09:53:00;11.63;;;7.40;;
10641;SDS011;5369;49.586;8.646;2024-01-27T09:55:26;12.67;;;8.00;;
10641;SDS011;5369;49.586;8.646;2024-01-27T09:57:52;11.47;;;6.47;;
10641;SDS011;5369;49.586;8.646;2024-01-27T10:00:18;11.17;;;5.97;;
10641;SDS011;5369;49.586;8.646;2024-01-27T10:02:45;10.50;;;6.30;;
10641;SDS011;5369;49.586;8.646;2024-01-27T10:05:12;10.27;;;5.80;;
10641;SDS011;5369;49.586;8.646;2024-01-27T10:07:39;11.00;;;6.00;;
10641;SDS011;5369;49.586;8.646;2024-01-27T10:10:05;13.40;;;6.03;;
10641;SDS011;5369;49.586;8.646;2024-01-27T10:12:32;11.77;;;5.97;;
10641;SDS011;5369;49.586;8.646;2024-01-27T10:14:59;12.87;;;5.80;;
10641;SDS011;5369;49.586;8.646;2024-01-27T10:17:25;10.50;;;5.50;;
10641;SDS011;5369;49.586;8.646;2024-01-27T10:20:03;12.50;;;5.43;;
10641;SDS011;5369;49.586;8.646;2024-01-27T10:22:40;10.47;;;5.83;;
10641;SDS011;5369;49.586;8.646;2024-01-27T10:25:06;12.77;;;5.40;;
10641;SDS011;5369;49.586;8.646;2024-01-27T10:27:33;10.40;;;5.20;;
10641;SDS011;5369;49.586;8.646;2024-01-27T10:30:00;11.43;;;5.00;;
10641;SDS011;5369;49.586;8.646;2024-01-27T10:32:26;9.87;;;5.17;;
10641;SDS011;5369;49.586;8.646;2024-01-27T10:35:04;10.87;;;4.67;;
10641;SDS011;5369;49.586;8.646;2024-01-27T10:37:33;10.70;;;4.80;;
10641;SDS011;5369;49.586;8.646;2024-01-27T10:40:03;11.63;;;5.27;;
10641;SDS011;5369;49.586;8.646;2024-01-27T10:42:29;9.57;;;4.70;;
10641;SDS011;5369;49.586;8.646;2024-01-27T10:44:59;10.93;;;5.27;;
10641;SDS011;5369;49.586;8.646;2024-01-27T10:47:29;10.07;;;4.80;;
10641;SDS011;5369;49.586;8.646;2024-01-27T10:49:56;13.13;;;4.90;;
10641;SDS011;5369;49.586;8.646;2024-01-27T10:52:23;11.43;;;5.20;;
10641;SDS011;5369;49.586;8.646;2024-01-27T10:54:59;10.27;;;5.00;;
10641;SDS011;5369;49.586;8.646;2024-01-27T10:57:26;12.50;;;5.27;;
10641;SDS011;5369;49.586;8.646;2024-01-27T10:59:53;10.40;;;4.87;;
10641;SDS011;5369;49.586;8.646;2024-01-27T11:02:19;9.60;;;5.13;;
10641;SDS011;5369;49.586;8.646;2024-01-27T11:04:47;9.20;;;4.90;;
10641;SDS011;5369;49.586;8.646;2024-01-27T11:07:15;10.03;;;4.67;;
10641;SDS011;5369;49.586;8.646;2024-01-27T11:09:42;9.10;;;4.47;;
10641;SDS011;5369;49.586;8.646;2024-01-27T11:12:08;11.27;;;4.73;;
10641;SDS011;5369;49.586;8.646;2024-01-27T11:14:35;10.43;;;4.80;;
10641;SDS011;5369;49.586;8.646;2024-01-27T11:17:01;7.83;;;4.40;;
10641;SDS011;5369;49.586;8.646;2024-01-27T11:19:28;14.53;;;5.07;;
10641;SDS011;5369;49.586;8.646;2024-01-27T11:22:00;9.87;;;4.60;;
10641;SDS011;5369;49.586;8.646;2024-01-27T11:24:27;11.90;;;4.30;;
10641;SDS011;5369;49.586;8.646;2024-01-27T11:27:26;8.33;;;3.97;;
10641;SDS011;5369;49.586;8.646;2024-01-27T11:29:49;8.17;;;4.27;;
10641;SDS011;5369;49.586;8.646;2024-01-27T11:32:15;11.30;;;4.33;;
10641;SDS011;5369;49.586;8.646;2024-01-27T11:34:42;12.43;;;4.30;;
10641;SDS011;5369;49.586;8.646;2024-01-27T11:37:12;9.63;;;4.43;;
10641;SDS011;5369;49.586;8.646;2024-01-27T11:39:38;13.70;;;5.30;;
10641;SDS011;5369;49.586;8.646;2024-01-27T11:42:08;11.73;;;5.13;;
10641;SDS011;5369;49.586;8.646;2024-01-27T11:44:35;12.07;;;5.40;;
10641;SDS011;5369;49.586;8.646;2024-01-27T11:47:01;8.53;;;4.97;;
10641;SDS011;5369;49.586;8.646;2024-01-27T11:49:27;12.57;;;4.93;;
10641;SDS011;5369;49.586;8.646;2024-01-27T11:51:54;8.63;;;4.20;;
10641;SDS011;5369;49.586;8.646;2024-01-27T11:54:20;8.23;;;3.60;;
10641;SDS011;5369;49.586;8.646;2024-01-27T11:56:46;8.57;;;3.63;;
10641;SDS011;5369;49.586;8.646;2024-01-27T11:59:12;10.93;;;3.83;;
10641;SDS011;5369;49.586;8.646;2024-01-27T12:01:39;9.67;;;3.43;;
10641;SDS011;5369;49.586;8.646;2024-01-27T12:04:05;8.90;;;3.40;;
10641;SDS011;5369;49.586;8.646;2024-01-27T12:06:31;10.57;;;3.13;;
10641;SDS011;5369;49.586;8.646;2024-01-27T12:08:57;10.27;;;3.30;;
10641;SDS011;5369;49.586;8.646;2024-01-27T12:11:27;7.87;;;3.30;;
10641;SDS011;5369;49.586;8.646;2024-01-27T12:13:55;8.17;;;3.40;;
10641;SDS011;5369;49.586;8.646;2024-01-27T12:16:21;10.53;;;3.23;;
10641;SDS011;5369;49.586;8.646;2024-01-27T12:18:51;10.40;;;3.20;;
10641;SDS011;5369;49.586;8.646;2024-01-27T12:21:19;7.83;;;3.10;;
10641;SDS011;5369;49.586;8.646;2024-01-27T12:24:03;12.83;;;3.40;;
10641;SDS011;5369;49.586;8.646;2024-01-27T12:26:30;12.40;;;3.50;;
10641;SDS011;5369;49.586;8.646;2024-01-27T12:28:56;10.30;;;3.20;;
10641;SDS011;5369;49.586;8.646;2024-01-27T12:31:23;9.03;;;3.30;;
10641;SDS011;5369;49.586;8.646;2024-01-27T12:33:50;10.53;;;2.83;;
10641;SDS011;5369;49.586;8.646;2024-01-27T12:36:17;10.17;;;3.63;;
10641;SDS011;5369;49.586;8.646;2024-01-27T12:38:46;7.50;;;3.03;;
10641;SDS011;5369;49.586;8.646;2024-01-27T12:41:12;7.10;;;3.07;;
10641;SDS011;5369;49.586;8.646;2024-01-27T12:43:38;8.07;;;2.77;;
10641;SDS011;5369;49.586;8.646;2024-01-27T12:46:04;9.17;;;2.70;;
10641;SDS011;5369;49.586;8.646;2024-01-27T12:48:31;9.30;;;2.83;;
10641;SDS011;5369;49.586;8.646;2024-01-27T12:50:57;6.67;;;2.50;;
10641;SDS011;5369;49.586;8.646;2024-01-27T12:53:23;9.33;;;3.10;;
10641;SDS011;5369;49.586;8.646;2024-01-27T12:55:49;8.97;;;3.17;;
10641;SDS011;5369;49.586;8.646;2024-01-27T12:58:15;10.07;;;2.90;;
10641;SDS011;5369;49.586;8.646;2024-01-27T13:00:41;9.23;;;3.07;;
10641;SDS011;5369;49.586;8.646;2024-01-27T13:03:07;8.77;;;2.50;;
10641;SDS011;5369;49.586;8.646;2024-01-27T13:05:34;6.67;;;2.37;;
10641;SDS011;5369;49.586;8.646;2024-01-27T13:08:00;8.10;;;2.67;;
10641;SDS011;5369;49.586;8.646;2024-01-27T13:10:26;4.33;;;2.13;;
10641;SDS011;5369;49.586;8.646;2024-01-27T13:12:52;7.93;;;2.50;;
10641;SDS011;5369;49.586;8.646;2024-01-27T13:15:18;7.03;;;2.20;;
10641;SDS011;5369;49.586;8.646;2024-01-27T13:17:45;8.37;;;2.30;;
10641;SDS011;5369;49.586;8.646;2024-01-27T13:20:11;8.80;;;2.50;;
10641;SDS011;5369;49.586;8.646;2024-01-27T13:22:37;7.97;;;2.20;;
10641;SDS011;5369;49.586;8.646;2024-01-27T13:25:03;8.83;;;2.10;;
10641;SDS011;5369;49.586;8.646;2024-01-27T13:27:31;7.43;;;2.50;;
10641;SDS011;5369;49.586;8.646;2024-01-27T13:29:59;11.47;;;2.53;;
10641;SDS011;5369;49.586;8.646;2024-01-27T13:32:25;7.80;;;2.47;;
10641;SDS011;5369;49.586;8.646;2024-01-27T13:34:52;7.07;;;2.40;;
10641;SDS011;5369;49.586;8.646;2024-01-27T13:37:18;6.80;;;2.33;;
10641;SDS011;5369;49.586;8.646;2024-01-27T13:39:44;5.97;;;2.10;;
10641;SDS011;5369;49.586;8.646;2024-01-27T13:42:10;6.97;;;2.03;;
10641;SDS011;5369;49.586;8.646;2024-01-27T13:44:36;7.97;;;2.30;;
10641;SDS011;5369;49.586;8.646;2024-01-27T13:47:03;9.23;;;2.20;;
10641;SDS011;5369;49.586;8.646;2024-01-27T13:49:31;7.70;;;2.23;;
10641;SDS011;5369;49.586;8.646;2024-01-27T13:51:57;9.03;;;2.27;;
10641;SDS011;5369;49.586;8.646;2024-01-27T13:54:23;10.67;;;2.40;;
10641;SDS011;5369;49.586;8.646;2024-01-27T13:56:49;5.50;;;1.97;;
10641;SDS011;5369;49.586;8.646;2024-01-27T13:59:15;4.63;;;1.80;;
10641;SDS011;5369;49.586;8.646;2024-01-27T14:01:41;6.03;;;1.97;;
10641;SDS011;5369;49.586;8.646;2024-01-27T14:04:07;6.73;;;2.20;;
10641;SDS011;5369;49.586;8.646;2024-01-27T14:06:34;6.07;;;1.90;;
10641;SDS011;5369;49.586;8.646;2024-01-27T14:09:01;5.83;;;1.93;;
10641;SDS011;5369;49.586;8.646;2024-01-27T14:11:28;4.97;;;1.87;;
10641;SDS011;5369;49.586;8.646;2024-01-27T14:13:54;8.30;;;2.10;;
10641;SDS011;5369;49.586;8.646;2024-01-27T14:16:22;6.43;;;1.90;;
10641;SDS011;5369;49.586;8.646;2024-01-27T14:18:48;6.33;;;2.00;;
10641;SDS011;5369;49.586;8.646;2024-01-27T14:21:14;6.43;;;1.97;;
10641;SDS011;5369;49.586;8.646;2024-01-27T14:23:40;9.03;;;1.80;;
10641;SDS011;5369;49.586;8.646;2024-01-27T14:26:06;4.30;;;1.63;;
10641;SDS011;5369;49.586;8.646;2024-01-27T14:28:40;3.87;;;1.60;;
10641;SDS011;5369;49.586;8.646;2024-01-27T14:31:06;4.70;;;1.53;;
10641;SDS011;5369;49.586;8.646;2024-01-27T14:33:33;7.90;;;1.73;;
10641;SDS011;5369;49.586;8.646;2024-01-27T14:35:59;9.07;;;2.37;;
10641;SDS011;5369;49.586;8.646;2024-01-27T14:38:25;6.53;;;2.20;;
10641;SDS011;5369;49.586;8.646;2024-01-27T14:40:52;6.27;;;1.87;;
10641;SDS011;5369;49.586;8.646;2024-01-27T14:43:18;6.37;;;1.60;;
10641;SDS011;5369;49.586;8.646;2024-01-27T14:45:44;5.17;;;1.50;;
10641;SDS011;5369;49.586;8.646;2024-01-27T14:48:10;6.47;;;2.47;;
10641;SDS011;5369;49.586;8.646;2024-01-27T14:50:37;6.40;;;1.93;;
10641;SDS011;5369;49.586;8.646;2024-01-27T14:53:03;5.83;;;1.93;;